sensor_id;sensor_type;location;lat;lon;timestamp;pressure;altitude;pressure_sealevel;temperature;humidity
28626;BME280;18905;42.668;23.364;2023-01-28T00:01:36;94455.38;;;0.67;100.00
28626;BME280;18905;42.668;23.364;2023-01-28T00:04:01;94435.25;;;0.41;100.00
28626;BME280;18905;42.668;23.364;2023-01-28T00:06:26;94462.78;;;0.65;100.00
28626;BME280;18905;42.668;23.364;2023-01-28T00:08:52;94367.44;;;-0.26;100.00
28626;BME280;18905;42.668;23.364;2023-01-28T00:11:19;94463.69;;;0.35;100.00
28626;BME280;18905;42.668;23.364;2023-01-28T00:13:50;94446.41;;;0.38;100.00
28626;BME280;18905;42.668;23.364;2023-01-28T00:16:16;94403.47;;;0.10;100.00
28626;BME280;18905;42.668;23.364;2023-01-28T00:18:41;94391.56;;;-0.07;100.00
28626;BME280;18905;42.668;23.364;2023-01-28T00:21:10;94401.38;;;0.08;100.00
28626;BME280;18905;42.668;23.364;2023-01-28T00:23:38;94453.84;;;0.41;100.00
28626;BME280;18905;42.668;23.364;2023-01-28T00:26:09;94381.53;;;-0.30;100.00
28626;BME280;18905;42.668;23.364;2023-01-28T00:28:35;94408.25;;;0.08;100.00
28626;BME280;18905;42.668;23.364;2023-01-28T00:31:30;94486.66;;;0.80;100.00
28626;BME280;18905;42.668;23.364;2023-01-28T00:33:56;94414.00;;;0.41;100.00
28626;BME280;18905;42.668;23.364;2023-01-28T00:36:23;94495.72;;;0.69;100.00
28626;BME280;18905;42.668;23.364;2023-01-28T00:38:54;94415.38;;;0.33;100.00
28626;BME280;18905;42.668;23.364;2023-01-28T00:41:21;94489.31;;;0.75;100.00
28626;BME280;18905;42.668;23.364;2023-01-28T00:43:48;94486.66;;;0.80;100.00
28626;BME280;18905;42.668;23.364;2023-01-28T00:46:14;94416.72;;;0.26;100.00
28626;BME280;18905;42.668;23.364;2023-01-28T00:48:41;94501.31;;;0.67;100.00
28626;BME280;18905;42.668;23.364;2023-01-28T00:51:08;94415.16;;;0.04;100.00
28626;BME280;18905;42.668;23.364;2023-01-28T00:53:35;94456.28;;;0.17;100.00
28626;BME280;18905;42.668;23.364;2023-01-28T00:56:03;94501.56;;;0.66;100.00
28626;BME280;18905;42.668;23.364;2023-01-28T00:58:30;94431.53;;;0.42;100.00
28626;BME280;18905;42.668;23.364;2023-01-28T01:00:55;94482.53;;;0.44;100.00
28626;BME280;18905;42.668;23.364;2023-01-28T01:03:20;94444.81;;;0.42;100.00
28626;BME280;18905;42.668;23.364;2023-01-28T01:05:46;94500.84;;;0.55;100.00
28626;BME280;18905;42.668;23.364;2023-01-28T01:08:12;94432.38;;;0.22;100.00
28626;BME280;18905;42.668;23.364;2023-01-28T01:10:38;94424.97;;;0.04;100.00
28626;BME280;18905;42.668;23.364;2023-01-28T01:13:06;94477.22;;;0.49;100.00
28626;BME280;18905;42.668;23.364;2023-01-28T01:15:32;94441.19;;;0.13;100.00
28626;BME280;18905;42.668;23.364;2023-01-28T01:17:58;94506.94;;;0.46;100.00
28626;BME280;18905;42.668;23.364;2023-01-28T01:20:26;94491.59;;;0.22;100.00
28626;BME280;18905;42.668;23.364;2023-01-28T01:22:52;94422.63;;;-0.18;100.00
28626;BME280;18905;42.668;23.364;2023-01-28T01:25:19;94416.78;;;-0.05;100.00
28626;BME280;18905;42.668;23.364;2023-01-28T01:27:47;94436.06;;;0.31;100.00
28626;BME280;18905;42.668;23.364;2023-01-28T01:30:14;94430.00;;;0.10;100.00
28626;BME280;18905;42.668;23.364;2023-01-28T01:32:40;94511.16;;;0.62;100.00
28626;BME280;18905;42.668;23.364;2023-01-28T01:35:07;94408.81;;;0.00;100.00
28626;BME280;18905;42.668;23.364;2023-01-28T01:37:34;94508.50;;;0.72;100.00
28626;BME280;18905;42.668;23.364;2023-01-28T01:40:00;94491.53;;;0.43;100.00
28626;BME280;18905;42.668;23.364;2023-01-28T01:42:27;94472.38;;;0.61;100.00
28626;BME280;18905;42.668;23.364;2023-01-28T01:44:57;94510.31;;;0.76;100.00
28626;BME280;18905;42.668;23.364;2023-01-28T01:49:58;94403.75;;;0.14;100.00
28626;BME280;18905;42.668;23.364;2023-01-28T01:52:31;94468.69;;;0.52;100.00
28626;BME280;18905;42.668;23.364;2023-01-28T01:55:00;94416.53;;;-0.18;100.00
28626;BME280;18905;42.668;23.364;2023-01-28T01:57:31;94436.94;;;0.12;100.00
28626;BME280;18905;42.668;23.364;2023-01-28T01:59:59;94520.19;;;0.66;100.00
28626;BME280;18905;42.668;23.364;2023-01-28T02:02:43;94427.94;;;0.03;100.00
28626;BME280;18905;42.668;23.364;2023-01-28T02:05:12;94523.09;;;0.59;100.00
28626;BME280;18905;42.668;23.364;2023-01-28T02:07:39;94489.19;;;0.31;100.00
28626;BME280;18905;42.668;23.364;2023-01-28T02:10:06;94494.50;;;0.21;100.00
28626;BME280;18905;42.668;23.364;2023-01-28T02:12:44;94453.16;;;-0.25;100.00
28626;BME280;18905;42.668;23.364;2023-01-28T02:15:16;94496.38;;;0.10;100.00
28626;BME280;18905;42.668;23.364;2023-01-28T02:17:43;94458.16;;;0.01;100.00
28626;BME280;18905;42.668;23.364;2023-01-28T02:20:13;94473.03;;;0.13;100.00
28626;BME280;18905;42.668;23.364;2023-01-28T02:25:25;94522.81;;;0.71;100.00
28626;BME280;18905;42.668;23.364;2023-01-28T02:30:37;94508.56;;;0.32;100.00
28626;BME280;18905;42.668;23.364;2023-01-28T02:33:08;94488.13;;;0.37;100.00
28626;BME280;18905;42.668;23.364;2023-01-28T02:35:43;94530.56;;;0.57;100.00
28626;BME280;18905;42.668;23.364;2023-01-28T02:38:15;94413.09;;;-0.24;100.00
28626;BME280;18905;42.668;23.364;2023-01-28T02:40:46;94444.38;;;-0.06;100.00
28626;BME280;18905;42.668;23.364;2023-01-28T02:43:43;94496.38;;;0.15;100.00
28626;BME280;18905;42.668;23.364;2023-01-28T02:48:58;94460.28;;;0.09;100.00
28626;BME280;18905;42.668;23.364;2023-01-28T02:51:58;94537.53;;;0.33;100.00
28626;BME280;18905;42.668;23.364;2023-01-28T02:57:14;94530.34;;;0.13;100.00
28626;BME280;18905;42.668;23.364;2023-01-28T03:00:02;94529.25;;;0.29;100.00
28626;BME280;18905;42.668;23.364;2023-01-28T03:05:38;94542.56;;;0.24;100.00
28626;BME280;18905;42.668;23.364;2023-01-28T03:07:45;94510.19;;;0.13;100.00
28626;BME280;18905;42.668;23.364;2023-01-28T03:10:13;94518.94;;;0.13;100.00
28626;BME280;18905;42.668;23.364;2023-01-28T03:12:42;94535.91;;;0.37;100.00
28626;BME280;18905;42.668;23.364;2023-01-28T03:15:34;94546.00;;;0.55;100.00
28626;BME280;18905;42.668;23.364;2023-01-28T03:18:43;94544.94;;;0.46;100.00
28626;BME280;18905;42.668;23.364;2023-01-28T03:21:37;94513.88;;;0.27;100.00
28626;BME280;18905;42.668;23.364;2023-01-28T03:24:25;94538.84;;;0.26;100.00
28626;BME280;18905;42.668;23.364;2023-01-28T03:27:23;94538.59;;;0.12;100.00
28626;BME280;18905;42.668;23.364;2023-01-28T03:30:18;94530.88;;;-0.05;100.00
28626;BME280;18905;42.668;23.364;2023-01-28T03:33:04;94508.59;;;-0.14;100.00
28626;BME280;18905;42.668;23.364;2023-01-28T03:35:49;94537.78;;;0.27;100.00
28626;BME280;18905;42.668;23.364;2023-01-28T03:38:33;94554.22;;;0.28;100.00
28626;BME280;18905;42.668;23.364;2023-01-28T03:41:08;94541.22;;;0.17;100.00
28626;BME280;18905;42.668;23.364;2023-01-28T03:43:34;94555.81;;;0.24;100.00
28626;BME280;18905;42.668;23.364;2023-01-28T03:46:00;94530.09;;;0.10;100.00
28626;BME280;18905;42.668;23.364;2023-01-28T03:48:27;94468.81;;;-0.19;100.00
28626;BME280;18905;42.668;23.364;2023-01-28T03:50:54;94557.44;;;0.05;100.00
28626;BME280;18905;42.668;23.364;2023-01-28T03:53:21;94479.94;;;-0.32;100.00
28626;BME280;18905;42.668;23.364;2023-01-28T03:55:49;94500.13;;;-0.06;100.00
28626;BME280;18905;42.668;23.364;2023-01-28T03:58:16;94487.38;;;-0.14;100.00
28626;BME280;18905;42.668;23.364;2023-01-28T04:00:42;94493.19;;;-0.57;100.00
28626;BME280;18905;42.668;23.364;2023-01-28T04:03:12;94500.66;;;-0.39;100.00
28626;BME280;18905;42.668;23.364;2023-01-28T04:05:42;94526.91;;;-0.22;100.00
28626;BME280;18905;42.668;23.364;2023-01-28T04:08:08;94540.97;;;-0.27;100.00
28626;BME280;18905;42.668;23.364;2023-01-28T04:10:34;94477.53;;;-0.53;100.00
28626;BME280;18905;42.668;23.364;2023-01-28T04:12:59;94566.19;;;0.06;100.00
28626;BME280;18905;42.668;23.364;2023-01-28T04:15:25;94571.25;;;0.17;100.00
28626;BME280;18905;42.668;23.364;2023-01-28T04:17:50;94494.28;;;-0.33;100.00
28626;BME280;18905;42.668;23.364;2023-01-28T04:20:16;94573.34;;;0.20;100.00
28626;BME280;18905;42.668;23.364;2023-01-28T04:22:42;94480.19;;;-0.38;100.00
28626;BME280;18905;42.668;23.364;2023-01-28T04:25:08;94471.44;;;-0.49;100.00
28626;BME280;18905;42.668;23.364;2023-01-28T04:27:34;94508.59;;;-0.04;100.00
28626;BME280;18905;42.668;23.364;2023-01-28T04:29:59;94501.69;;;-0.05;100.00
28626;BME280;18905;42.668;23.364;2023-01-28T04:32:25;94511.78;;;-0.12;100.00
28626;BME280;18905;42.668;23.364;2023-01-28T04:34:51;94576.28;;;0.39;100.00
28626;BME280;18905;42.668;23.364;2023-01-28T04:37:16;94491.88;;;-0.24;100.00
28626;BME280;18905;42.668;23.364;2023-01-28T04:39:42;94525.31;;;-0.08;100.00
28626;BME280;18905;42.668;23.364;2023-01-28T04:42:07;94507.22;;;-0.51;100.00
28626;BME280;18905;42.668;23.364;2023-01-28T04:44:33;94520.00;;;-0.33;100.00
28626;BME280;18905;42.668;23.364;2023-01-28T04:46:58;94604.44;;;0.30;100.00
28626;BME280;18905;42.668;23.364;2023-01-28T04:49:24;94517.34;;;-0.28;100.00
28626;BME280;18905;42.668;23.364;2023-01-28T04:51:49;94570.16;;;0.23;100.00
28626;BME280;18905;42.668;23.364;2023-01-28T04:54:14;94567.78;;;0.07;100.00
28626;BME280;18905;42.668;23.364;2023-01-28T04:56:40;94552.63;;;-0.13;100.00
28626;BME280;18905;42.668;23.364;2023-01-28T04:59:05;94531.41;;;-0.23;100.00
28626;BME280;18905;42.668;23.364;2023-01-28T05:01:32;94608.94;;;-0.01;100.00
28626;BME280;18905;42.668;23.364;2023-01-28T05:03:57;94531.66;;;-0.39;100.00
28626;BME280;18905;42.668;23.364;2023-01-28T05:06:23;94569.63;;;-0.14;100.00
28626;BME280;18905;42.668;23.364;2023-01-28T05:08:49;94532.22;;;-0.32;100.00
28626;BME280;18905;42.668;23.364;2023-01-28T05:11:14;94617.16;;;0.13;100.00
28626;BME280;18905;42.668;23.364;2023-01-28T05:13:40;94625.16;;;0.28;100.00
28626;BME280;18905;42.668;23.364;2023-01-28T05:16:06;94538.84;;;-0.30;100.00
28626;BME280;18905;42.668;23.364;2023-01-28T05:18:31;94553.97;;;-0.30;100.00
28626;BME280;18905;42.668;23.364;2023-01-28T05:20:57;94564.56;;;-0.25;100.00
28626;BME280;18905;42.668;23.364;2023-01-28T05:23:23;94600.66;;;-0.24;100.00
28626;BME280;18905;42.668;23.364;2023-01-28T05:25:48;94555.28;;;-0.43;100.00
28626;BME280;18905;42.668;23.364;2023-01-28T05:28:14;94556.84;;;-0.52;100.00
28626;BME280;18905;42.668;23.364;2023-01-28T05:30:40;94607.03;;;-0.25;100.00
28626;BME280;18905;42.668;23.364;2023-01-28T05:33:05;94634.66;;;-0.11;100.00
28626;BME280;18905;42.668;23.364;2023-01-28T05:35:31;94575.91;;;-0.50;100.00
28626;BME280;18905;42.668;23.364;2023-01-28T05:37:57;94574.88;;;-0.44;100.00
28626;BME280;18905;42.668;23.364;2023-01-28T05:40:22;94644.44;;;-0.22;100.00
28626;BME280;18905;42.668;23.364;2023-01-28T05:42:47;94590.81;;;-0.39;100.00
28626;BME280;18905;42.668;23.364;2023-01-28T05:45:13;94570.69;;;-0.30;100.00
28626;BME280;18905;42.668;23.364;2023-01-28T05:47:39;94557.94;;;-0.33;100.00
28626;BME280;18905;42.668;23.364;2023-01-28T05:50:05;94611.59;;;0.09;100.00
28626;BME280;18905;42.668;23.364;2023-01-28T05:52:31;94569.59;;;-0.39;100.00
28626;BME280;18905;42.668;23.364;2023-01-28T05:54:56;94626.44;;;0.15;100.00
28626;BME280;18905;42.668;23.364;2023-01-28T05:57:22;94572.78;;;-0.22;100.00
28626;BME280;18905;42.668;23.364;2023-01-28T05:59:47;94565.38;;;-0.25;100.00
28626;BME280;18905;42.668;23.364;2023-01-28T06:02:12;94560.03;;;-0.45;100.00
28626;BME280;18905;42.668;23.364;2023-01-28T06:04:38;94623.50;;;-0.18;100.00
28626;BME280;18905;42.668;23.364;2023-01-28T06:07:03;94663.34;;;0.07;100.00
28626;BME280;18905;42.668;23.364;2023-01-28T06:09:29;94672.69;;;0.40;100.00
28626;BME280;18905;42.668;23.364;2023-01-28T06:11:54;94588.72;;;-0.27;100.00
28626;BME280;18905;42.668;23.364;2023-01-28T06:14:19;94684.06;;;0.10;100.00
28626;BME280;18905;42.668;23.364;2023-01-28T06:16:45;94688.88;;;0.23;100.00
28626;BME280;18905;42.668;23.364;2023-01-28T06:19:10;94691.78;;;0.27;100.00
28626;BME280;18905;42.668;23.364;2023-01-28T06:21:36;94649.28;;;0.12;100.00
28626;BME280;18905;42.668;23.364;2023-01-28T06:24:01;94637.56;;;-0.13;100.00
28626;BME280;18905;42.668;23.364;2023-01-28T06:26:27;94596.16;;;-0.29;100.00
28626;BME280;18905;42.668;23.364;2023-01-28T06:28:52;94587.56;;;-0.61;100.00
28626;BME280;18905;42.668;23.364;2023-01-28T06:31:18;94674.53;;;0.14;100.00
28626;BME280;18905;42.668;23.364;2023-01-28T06:33:43;94643.66;;;-0.22;100.00
28626;BME280;18905;42.668;23.364;2023-01-28T06:36:09;94691.22;;;0.04;100.00
28626;BME280;18905;42.668;23.364;2023-01-28T06:38:34;94603.00;;;-0.43;100.00
28626;BME280;18905;42.668;23.364;2023-01-28T06:41:00;94717.22;;;0.03;100.00
28626;BME280;18905;42.668;23.364;2023-01-28T06:43:25;94626.03;;;-0.58;100.00
28626;BME280;18905;42.668;23.364;2023-01-28T06:45:58;94672.59;;;-0.11;100.00
28626;BME280;18905;42.668;23.364;2023-01-28T06:48:24;94719.16;;;0.32;100.00
28626;BME280;18905;42.668;23.364;2023-01-28T06:50:50;94729.22;;;0.20;100.00
28626;BME280;18905;42.668;23.364;2023-01-28T06:53:16;94621.00;;;-0.55;100.00
28626;BME280;18905;42.668;23.364;2023-01-28T06:55:42;94730.44;;;-0.03;100.00
28626;BME280;18905;42.668;23.364;2023-01-28T06:58:07;94628.19;;;-0.45;100.00
28626;BME280;18905;42.668;23.364;2023-01-28T07:00:32;94660.28;;;-0.42;100.00
28626;BME280;18905;42.668;23.364;2023-01-28T07:02:58;94644.09;;;-0.45;100.00
28626;BME280;18905;42.668;23.364;2023-01-28T07:05:24;94732.13;;;0.13;100.00
28626;BME280;18905;42.668;23.364;2023-01-28T07:07:49;94693.75;;;-0.31;100.00
28626;BME280;18905;42.668;23.364;2023-01-28T07:10:15;94718.56;;;0.05;100.00
28626;BME280;18905;42.668;23.364;2023-01-28T07:12:40;94744.28;;;0.04;100.00
28626;BME280;18905;42.668;23.364;2023-01-28T07:15:07;94675.16;;;-0.36;100.00
28626;BME280;18905;42.668;23.364;2023-01-28T07:17:35;94761.19;;;1.10;100.00
28626;BME280;18905;42.668;23.364;2023-01-28T07:20:00;94729.00;;;1.12;100.00
28626;BME280;18905;42.668;23.364;2023-01-28T07:22:25;94698.19;;;0.66;100.00
28626;BME280;18905;42.668;23.364;2023-01-28T07:24:51;94709.63;;;0.66;100.00
28626;BME280;18905;42.668;23.364;2023-01-28T07:27:16;94688.63;;;0.40;100.00
28626;BME280;18905;42.668;23.364;2023-01-28T07:29:42;94753.97;;;1.26;100.00
28626;BME280;18905;42.668;23.364;2023-01-28T07:32:07;94754.00;;;0.76;100.00
28626;BME280;18905;42.668;23.364;2023-01-28T07:34:32;94779.78;;;0.80;100.00
28626;BME280;18905;42.668;23.364;2023-01-28T07:36:58;94759.84;;;0.78;100.00
28626;BME280;18905;42.668;23.364;2023-01-28T07:39:23;94699.22;;;0.29;100.00
28626;BME280;18905;42.668;23.364;2023-01-28T07:41:49;94698.44;;;0.59;100.00
28626;BME280;18905;42.668;23.364;2023-01-28T07:44:14;94774.22;;;0.97;100.00
28626;BME280;18905;42.668;23.364;2023-01-28T07:46:39;94695.00;;;0.54;100.00
28626;BME280;18905;42.668;23.364;2023-01-28T07:49:05;94779.50;;;1.52;100.00
28626;BME280;18905;42.668;23.364;2023-01-28T07:51:30;94747.09;;;1.20;100.00
28626;BME280;18905;42.668;23.364;2023-01-28T07:53:56;94743.91;;;0.78;100.00
28626;BME280;18905;42.668;23.364;2023-01-28T07:56:21;94722.66;;;0.73;100.00
28626;BME280;18905;42.668;23.364;2023-01-28T07:58:50;94702.72;;;0.75;100.00
28626;BME280;18905;42.668;23.364;2023-01-28T08:01:15;94780.25;;;1.72;100.00
28626;BME280;18905;42.668;23.364;2023-01-28T08:03:42;94713.06;;;1.02;100.00
28626;BME280;18905;42.668;23.364;2023-01-28T08:06:08;94710.16;;;0.88;100.00
28626;BME280;18905;42.668;23.364;2023-01-28T08:08:33;94791.75;;;1.03;100.00
28626;BME280;18905;42.668;23.364;2023-01-28T08:11:05;94764.84;;;0.54;100.00
28626;BME280;18905;42.668;23.364;2023-01-28T08:13:33;94798.38;;;0.90;100.00
28626;BME280;18905;42.668;23.364;2023-01-28T08:15:59;94798.94;;;0.87;100.00
28626;BME280;18905;42.668;23.364;2023-01-28T08:18:24;94798.13;;;0.77;100.00
28626;BME280;18905;42.668;23.364;2023-01-28T08:20:54;94810.31;;;0.58;100.00
28626;BME280;18905;42.668;23.364;2023-01-28T08:23:19;94792.91;;;0.15;100.00
28626;BME280;18905;42.668;23.364;2023-01-28T08:25:45;94810.56;;;0.51;100.00
28626;BME280;18905;42.668;23.364;2023-01-28T08:28:12;94781.53;;;0.29;100.00
28626;BME280;18905;42.668;23.364;2023-01-28T08:30:38;94802.25;;;0.32;100.00
28626;BME280;18905;42.668;23.364;2023-01-28T08:33:06;94792.72;;;0.42;100.00
28626;BME280;18905;42.668;23.364;2023-01-28T08:35:32;94811.06;;;0.43;100.00
28626;BME280;18905;42.668;23.364;2023-01-28T08:37:59;94782.91;;;0.42;100.00
28626;BME280;18905;42.668;23.364;2023-01-28T08:40:25;94729.69;;;0.02;100.00
28626;BME280;18905;42.668;23.364;2023-01-28T08:42:52;94817.22;;;0.54;100.00
28626;BME280;18905;42.668;23.364;2023-01-28T08:45:20;94809.25;;;0.59;100.00
28626;BME280;18905;42.668;23.364;2023-01-28T08:47:57;94808.75;;;0.92;100.00
28626;BME280;18905;42.668;23.364;2023-01-28T08:50:25;94755.34;;;0.78;100.00
28626;BME280;18905;42.668;23.364;2023-01-28T08:53:03;94795.50;;;1.27;100.00
28626;BME280;18905;42.668;23.364;2023-01-28T08:55:29;94777.41;;;0.99;100.00
28626;BME280;18905;42.668;23.364;2023-01-28T08:57:55;94786.16;;;1.09;100.00
28626;BME280;18905;42.668;23.364;2023-01-28T09:00:21;94822.59;;;1.49;100.00
28626;BME280;18905;42.668;23.364;2023-01-28T09:02:50;94819.94;;;1.44;100.00
28626;BME280;18905;42.668;23.364;2023-01-28T09:05:17;94818.31;;;1.68;100.00
28626;BME280;18905;42.668;23.364;2023-01-28T09:07:42;94719.72;;;0.79;100.00
28626;BME280;18905;42.668;23.364;2023-01-28T09:10:08;94742.59;;;1.10;100.00
28626;BME280;18905;42.668;23.364;2023-01-28T09:12:34;94798.13;;;1.02;100.00
28626;BME280;18905;42.668;23.364;2023-01-28T09:15:00;94812.22;;;1.32;100.00
28626;BME280;18905;42.668;23.364;2023-01-28T09:17:25;94794.44;;;1.23;100.00
28626;BME280;18905;42.668;23.364;2023-01-28T09:19:50;94785.38;;;1.14;100.00
28626;BME280;18905;42.668;23.364;2023-01-28T09:22:16;94750.84;;;0.99;100.00
28626;BME280;18905;42.668;23.364;2023-01-28T09:24:42;94785.38;;;1.19;100.00
28626;BME280;18905;42.668;23.364;2023-01-28T09:27:07;94821.78;;;1.58;100.00
28626;BME280;18905;42.668;23.364;2023-01-28T09:29:33;94823.13;;;1.61;100.00
28626;BME280;18905;42.668;23.364;2023-01-28T09:31:59;94822.59;;;1.54;100.00
28626;BME280;18905;42.668;23.364;2023-01-28T09:34:24;94782.44;;;1.35;100.00
28626;BME280;18905;42.668;23.364;2023-01-28T09:36:50;94822.59;;;1.54;100.00
28626;BME280;18905;42.668;23.364;2023-01-28T09:39:15;94800.78;;;1.17;100.00
28626;BME280;18905;42.668;23.364;2023-01-28T09:46:49;94825.06;;;6.96;100.00
28626;BME280;18905;42.668;23.364;2023-01-28T09:49:26;94819.16;;;5.54;100.00
28626;BME280;18905;42.668;23.364;2023-01-28T09:51:56;94816.19;;;5.37;100.00
28626;BME280;18905;42.668;23.364;2023-01-28T09:54:44;94824.25;;;5.87;100.00
28626;BME280;18905;42.668;23.364;2023-01-28T09:57:19;94828.56;;;5.33;100.00
28626;BME280;18905;42.668;23.364;2023-01-28T09:59:47;94818.13;;;4.57;100.00
28626;BME280;18905;42.668;23.364;2023-01-28T10:05:01;94821.16;;;2.70;100.00
28626;BME280;18905;42.668;23.364;2023-01-28T10:07:29;94812.25;;;2.31;100.00
28626;BME280;18905;42.668;23.364;2023-01-28T10:17:47;94809.91;;;2.19;100.00
28626;BME280;18905;42.668;23.364;2023-01-28T10:20:24;94759.84;;;1.18;100.00
28626;BME280;18905;42.668;23.364;2023-01-28T10:23:18;94789.84;;;1.68;100.00
28626;BME280;18905;42.668;23.364;2023-01-28T10:25:47;94814.88;;;1.62;100.00
28626;BME280;18905;42.668;23.364;2023-01-28T10:28:25;94784.78;;;1.67;100.00
28626;BME280;18905;42.668;23.364;2023-01-28T10:30:56;94761.41;;;1.44;100.00
28626;BME280;18905;42.668;23.364;2023-01-28T10:33:41;94715.72;;;1.02;100.00
28626;BME280;18905;42.668;23.364;2023-01-28T10:36:08;94779.88;;;5.81;100.00
28626;BME280;18905;42.668;23.364;2023-01-28T10:38:34;94758.28;;;3.02;100.00
28626;BME280;18905;42.668;23.364;2023-01-28T10:41:02;94820.50;;;2.39;100.00
28626;BME280;18905;42.668;23.364;2023-01-28T10:43:33;94724.28;;;1.97;100.00
28626;BME280;18905;42.668;23.364;2023-01-28T10:46:16;94823.94;;;2.45;100.00
28626;BME280;18905;42.668;23.364;2023-01-28T10:48:46;94774.13;;;1.62;100.00
28626;BME280;18905;42.668;23.364;2023-01-28T10:51:18;94657.22;;;1.07;100.00
28626;BME280;18905;42.668;23.364;2023-01-28T10:53:53;94807.97;;;1.61;100.00
28626;BME280;18905;42.668;23.364;2023-01-28T10:56:31;94814.25;;;2.00;100.00
28626;BME280;18905;42.668;23.364;2023-01-28T11:01:58;94807.13;;;1.71;100.00
28626;BME280;18905;42.668;23.364;2023-01-28T11:04:25;94798.59;;;1.79;100.00
28626;BME280;18905;42.668;23.364;2023-01-28T11:06:55;94808.41;;;1.93;100.00
28626;BME280;18905;42.668;23.364;2023-01-28T11:09:23;94803.25;;;2.27;100.00
28626;BME280;18905;42.668;23.364;2023-01-28T11:11:49;94772.03;;;1.59;100.00
28626;BME280;18905;42.668;23.364;2023-01-28T11:14:22;94777.91;;;1.46;100.00
28626;BME280;18905;42.668;23.364;2023-01-28T11:16:49;94808.44;;;1.88;100.00
28626;BME280;18905;42.668;23.364;2023-01-28T11:19:18;94800.75;;;1.67;100.00
28626;BME280;18905;42.668;23.364;2023-01-28T11:21:52;94803.88;;;3.06;100.00
28626;BME280;18905;42.668;23.364;2023-01-28T11:24:22;94779.16;;;2.47;100.00
28626;BME280;18905;42.668;23.364;2023-01-28T11:26:51;94748.84;;;2.81;100.00
28626;BME280;18905;42.668;23.364;2023-01-28T11:31:46;94781.53;;;1.90;100.00
28626;BME280;18905;42.668;23.364;2023-01-28T11:34:16;94799.56;;;2.08;100.00
28626;BME280;18905;42.668;23.364;2023-01-28T11:37:31;94797.50;;;1.95;100.00
28626;BME280;18905;42.668;23.364;2023-01-28T11:39:38;94781.97;;;2.12;100.00
28626;BME280;18905;42.668;23.364;2023-01-28T11:42:17;94798.81;;;2.02;100.00
28626;BME280;18905;42.668;23.364;2023-01-28T11:44:44;94790.56;;;1.94;100.00
28626;BME280;18905;42.668;23.364;2023-01-28T11:47:18;94792.41;;;2.03;100.00
28626;BME280;18905;42.668;23.364;2023-01-28T11:50:14;94794.31;;;2.56;100.00
28626;BME280;18905;42.668;23.364;2023-01-28T11:56:35;94796.91;;;2.08;100.00
28626;BME280;18905;42.668;23.364;2023-01-28T12:05:14;94796.41;;;2.06;100.00
28626;BME280;18905;42.668;23.364;2023-01-28T12:07:55;94798.72;;;2.22;100.00
28626;BME280;18905;42.668;23.364;2023-01-28T12:15:55;94795.34;;;1.97;100.00
28626;BME280;18905;42.668;23.364;2023-01-28T12:18:51;94796.28;;;2.31;100.00
28626;BME280;18905;42.668;23.364;2023-01-28T12:21:44;94800.38;;;2.08;100.00
28626;BME280;18905;42.668;23.364;2023-01-28T12:32:03;94808.63;;;2.65;100.00
28626;BME280;18905;42.668;23.364;2023-01-28T12:40:20;94818.25;;;2.66;100.00
28626;BME280;18905;42.668;23.364;2023-01-28T12:43:11;94800.34;;;2.18;100.00
28626;BME280;18905;42.668;23.364;2023-01-28T12:45:55;94806.63;;;4.15;100.00
28626;BME280;18905;42.668;23.364;2023-01-28T12:48:48;94814.53;;;2.62;100.00
28626;BME280;18905;42.668;23.364;2023-01-28T12:51:20;94808.41;;;2.57;100.00
28626;BME280;18905;42.668;23.364;2023-01-28T12:54:34;94823.88;;;3.42;100.00
28626;BME280;18905;42.668;23.364;2023-01-28T12:56:55;94800.97;;;2.97;100.00
28626;BME280;18905;42.668;23.364;2023-01-28T12:59:28;94816.78;;;2.89;100.00
28626;BME280;18905;42.668;23.364;2023-01-28T13:07:23;94825.31;;;2.32;100.00
28626;BME280;18905;42.668;23.364;2023-01-28T13:09:58;94811.03;;;2.08;100.00
28626;BME280;18905;42.668;23.364;2023-01-28T13:12:29;94820.28;;;2.26;100.00
28626;BME280;18905;42.668;23.364;2023-01-28T13:14:57;94833.59;;;2.36;100.00
28626;BME280;18905;42.668;23.364;2023-01-28T13:17:31;94812.78;;;2.38;100.00
28626;BME280;18905;42.668;23.364;2023-01-28T13:19:58;94803.72;;;2.39;100.00
28626;BME280;18905;42.668;23.364;2023-01-28T13:22:34;94830.00;;;2.60;100.00
28626;BME280;18905;42.668;23.364;2023-01-28T13:25:24;94843.22;;;2.17;100.00
28626;BME280;18905;42.668;23.364;2023-01-28T13:28:03;94794.56;;;1.91;100.00
28626;BME280;18905;42.668;23.364;2023-01-28T13:30:31;94835.84;;;1.89;100.00
28626;BME280;18905;42.668;23.364;2023-01-28T13:33:05;94829.47;;;1.80;100.00
28626;BME280;18905;42.668;23.364;2023-01-28T13:35:38;94842.25;;;1.83;100.00
28626;BME280;18905;42.668;23.364;2023-01-28T13:38:07;94848.63;;;1.92;100.00
28626;BME280;18905;42.668;23.364;2023-01-28T13:40:34;94826.31;;;1.68;100.00
28626;BME280;18905;42.668;23.364;2023-01-28T13:43:05;94860.63;;;1.84;100.00
28626;BME280;18905;42.668;23.364;2023-01-28T13:45:31;94858.72;;;2.00;100.00
28626;BME280;18905;42.668;23.364;2023-01-28T13:49:00;94861.66;;;2.03;100.00
28626;BME280;18905;42.668;23.364;2023-01-28T13:51:31;94851.03;;;1.88;100.00
28626;BME280;18905;42.668;23.364;2023-01-28T13:54:20;94862.22;;;1.75;100.00
28626;BME280;18905;42.668;23.364;2023-01-28T13:57:15;94857.69;;;1.76;100.00
28626;BME280;18905;42.668;23.364;2023-01-28T14:10:33;94872.63;;;1.42;100.00
28626;BME280;18905;42.668;23.364;2023-01-28T14:16:18;94888.31;;;1.58;100.00
28626;BME280;18905;42.668;23.364;2023-01-28T14:18:47;94881.38;;;1.27;100.00
28626;BME280;18905;42.668;23.364;2023-01-28T14:21:16;94902.94;;;1.56;100.00
28626;BME280;18905;42.668;23.364;2023-01-28T14:23:54;94893.06;;;0.96;100.00
28626;BME280;18905;42.668;23.364;2023-01-28T14:31:35;94896.00;;;1.20;100.00
28626;BME280;18905;42.668;23.364;2023-01-28T14:36:46;94878.97;;;1.11;100.00